createdAt,value
2018-09-13T00:00:28.101Z,0.00
2018-09-13T00:01:28.091Z,0.00
2018-09-13T00:02:28.323Z,0.00
2018-09-13T00:03:28.068Z,0.00
2018-09-13T00:04:28.063Z,0.00
2018-09-13T00:05:28.046Z,0.00
2018-09-13T00:06:28.035Z,0.00
2018-09-13T00:07:28.152Z,0.00
2018-09-13T00:08:28.014Z,0.00
2018-09-13T00:09:28.004Z,0.00
2018-09-13T00:10:28.001Z,0.00
2018-09-13T00:11:27.984Z,0.00
2018-09-13T00:12:28.301Z,0.00
2018-09-13T00:13:27.963Z,0.00
2018-09-13T00:14:27.952Z,0.00
2018-09-13T00:15:27.940Z,0.00
2018-09-13T00:16:27.933Z,0.00
2018-09-13T00:17:28.122Z,0.00
2018-09-13T00:18:27.907Z,0.00
2018-09-13T00:19:27.896Z,0.00
2018-09-13T00:20:27.886Z,0.00
2018-09-13T00:21:27.875Z,0.00
2018-09-13T00:22:27.952Z,0.00
2018-09-13T00:23:27.852Z,0.00
2018-09-13T00:24:27.842Z,0.00
2018-09-13T00:25:27.833Z,0.00
2018-09-13T00:26:27.824Z,0.00
2018-09-13T00:27:28.096Z,0.00
2018-09-13T00:28:27.800Z,0.00
2018-09-13T00:29:27.788Z,0.00
2018-09-13T00:30:27.778Z,0.00
2018-09-13T00:31:27.769Z,0.00
2018-09-13T00:32:27.923Z,0.00
2018-09-13T00:33:27.750Z,0.00
2018-09-13T00:34:27.738Z,0.00
2018-09-13T00:35:27.729Z,0.00
2018-09-13T00:36:27.713Z,0.00
2018-09-13T00:37:27.753Z,0.00
2018-09-13T00:38:27.695Z,0.00
2018-09-13T00:39:27.683Z,0.00
2018-09-13T00:40:27.670Z,0.00
2018-09-13T00:41:27.659Z,0.00
2018-09-13T00:42:27.902Z,0.00
2018-09-13T00:43:27.639Z,0.00
2018-09-13T00:44:27.640Z,0.00
2018-09-13T00:45:27.619Z,0.00
2018-09-13T00:46:27.604Z,0.00
2018-09-13T00:47:27.730Z,0.00
2018-09-13T00:48:27.584Z,0.00
2018-09-13T00:49:27.573Z,0.00
2018-09-13T00:50:27.564Z,0.00
2018-09-13T00:51:27.558Z,0.00
2018-09-13T00:52:27.865Z,0.00
2018-09-13T00:53:27.533Z,0.00
2018-09-13T00:54:27.523Z,0.00
2018-09-13T00:55:27.509Z,0.00
2018-09-13T00:56:27.498Z,0.00
2018-09-13T00:57:27.692Z,0.00
2018-09-13T00:58:27.478Z,0.00
2018-09-13T00:59:27.467Z,0.00
2018-09-13T01:00:27.455Z,0.00
2018-09-13T01:01:27.445Z,0.00
2018-09-13T01:02:27.836Z,0.00
2018-09-13T01:03:27.427Z,0.00
2018-09-13T01:04:27.412Z,0.00
2018-09-13T01:05:27.402Z,0.00
2018-09-13T01:06:27.391Z,0.00
2018-09-13T01:07:27.665Z,0.00
2018-09-13T01:08:27.376Z,0.00
2018-09-13T01:09:27.364Z,0.00
2018-09-13T01:10:27.349Z,0.00
2018-09-13T01:11:27.337Z,0.00
2018-09-13T01:12:27.492Z,0.00
2018-09-13T01:13:27.315Z,0.00
2018-09-13T01:14:27.303Z,0.00
2018-09-13T01:15:27.297Z,0.00
2018-09-13T01:16:27.313Z,0.00
2018-09-13T01:17:27.325Z,0.00
2018-09-13T01:18:27.263Z,0.00
2018-09-13T01:19:27.249Z,0.00
2018-09-13T01:20:27.242Z,0.00
2018-09-13T01:21:27.233Z,0.00
2018-09-13T01:22:27.463Z,0.00
2018-09-13T01:23:27.208Z,0.00
2018-09-13T01:24:27.197Z,0.00
2018-09-13T01:25:27.187Z,0.00
2018-09-13T01:26:27.176Z,0.00
2018-09-13T01:27:27.297Z,0.00
2018-09-13T01:28:27.153Z,0.00
2018-09-13T01:29:27.144Z,0.00
2018-09-13T01:30:27.132Z,0.00
2018-09-13T01:31:27.122Z,0.00
2018-09-13T01:32:27.443Z,0.00
2018-09-13T01:33:27.099Z,0.00
2018-09-13T01:34:27.090Z,0.00
2018-09-13T01:35:27.080Z,0.00
2018-09-13T01:36:27.069Z,0.00
2018-09-13T01:37:27.265Z,0.00
2018-09-13T01:38:27.054Z,0.00
2018-09-13T01:39:27.046Z,0.00
2018-09-13T01:40:27.025Z,0.00
2018-09-13T01:41:27.013Z,0.00
2018-09-13T01:42:27.095Z,0.00
2018-09-13T01:43:26.997Z,0.00
2018-09-13T01:44:26.985Z,0.00
2018-09-13T01:45:26.974Z,0.00
2018-09-13T01:46:26.962Z,0.00
2018-09-13T01:47:27.235Z,0.00
2018-09-13T01:48:26.938Z,0.00
2018-09-13T01:49:26.932Z,0.00
2018-09-13T01:50:26.924Z,0.00
2018-09-13T01:51:26.908Z,0.00
2018-09-13T01:52:27.680Z,0.00
2018-09-13T01:53:26.885Z,0.00
2018-09-13T01:54:26.876Z,0.00
2018-09-13T01:55:26.870Z,0.00
2018-09-13T01:56:26.861Z,0.00
2018-09-13T01:57:26.899Z,0.00
2018-09-13T01:58:26.833Z,0.00
2018-09-13T01:59:26.828Z,0.00
2018-09-13T02:00:26.809Z,0.00
2018-09-13T02:01:26.806Z,0.00
2018-09-13T02:02:27.033Z,0.00
2018-09-13T02:03:26.778Z,0.00
2018-09-13T02:04:26.766Z,0.00
2018-09-13T02:05:26.758Z,0.00
2018-09-13T02:06:26.745Z,0.00
2018-09-13T02:07:26.866Z,0.00
2018-09-13T02:08:26.725Z,0.00
2018-09-13T02:09:26.713Z,0.00
2018-09-13T02:10:26.702Z,0.00
2018-09-13T02:11:26.693Z,0.00
2018-09-13T02:12:27.005Z,0.00
2018-09-13T02:13:26.671Z,0.00
2018-09-13T02:14:26.671Z,0.00
2018-09-13T02:15:26.649Z,0.00
2018-09-13T02:16:26.639Z,0.00
2018-09-13T02:17:26.835Z,0.00
2018-09-13T02:18:26.619Z,0.00
2018-09-13T02:19:26.607Z,0.00
2018-09-13T02:20:26.600Z,0.00
2018-09-13T02:21:26.586Z,0.00
2018-09-13T02:22:26.665Z,0.00
2018-09-13T02:23:26.563Z,0.00
2018-09-13T02:24:26.551Z,0.00
2018-09-13T02:25:26.541Z,0.00
2018-09-13T02:26:26.538Z,0.00
2018-09-13T02:27:26.804Z,0.00
2018-09-13T02:28:26.508Z,0.00
2018-09-13T02:29:26.499Z,0.00
2018-09-13T02:30:26.490Z,0.00
2018-09-13T02:31:26.477Z,0.00
2018-09-13T02:32:26.639Z,0.00
2018-09-13T02:33:26.456Z,0.00
2018-09-13T02:34:26.448Z,0.00
2018-09-13T02:35:26.436Z,0.00
2018-09-13T02:36:26.423Z,0.00
2018-09-13T02:37:26.466Z,0.00
2018-09-13T02:38:26.407Z,0.00
2018-09-13T02:39:26.391Z,0.00
2018-09-13T02:40:26.381Z,0.00
2018-09-13T02:41:26.370Z,0.00
2018-09-13T02:42:26.607Z,0.00
2018-09-13T02:43:26.347Z,0.00
2018-09-13T02:44:26.342Z,0.00
2018-09-13T02:45:26.327Z,0.00
2018-09-13T02:46:26.322Z,0.00
2018-09-13T02:47:26.441Z,0.00
2018-09-13T02:48:26.295Z,0.00
2018-09-13T02:49:26.293Z,0.00
2018-09-13T02:50:26.273Z,0.00
2018-09-13T02:51:26.261Z,0.00
2018-09-13T02:52:26.574Z,0.00
2018-09-13T02:53:26.242Z,0.00
2018-09-13T02:54:26.231Z,0.00
2018-09-13T02:55:26.224Z,0.00
2018-09-13T02:56:26.210Z,0.00
2018-09-13T02:57:26.405Z,0.00
2018-09-13T02:58:26.187Z,0.00
2018-09-13T02:59:26.178Z,0.00
2018-09-13T03:00:26.171Z,0.00
2018-09-13T03:01:26.158Z,0.00
2018-09-13T03:02:26.235Z,0.00
2018-09-13T03:03:26.132Z,0.00
2018-09-13T03:04:26.121Z,0.00
2018-09-13T03:05:26.111Z,0.00
2018-09-13T03:06:26.104Z,0.00
2018-09-13T03:07:26.373Z,0.00
2018-09-13T03:08:26.111Z,0.00
2018-09-13T03:09:26.070Z,0.00
2018-09-13T03:10:26.065Z,0.00
2018-09-13T03:11:26.045Z,0.00
2018-09-13T03:12:26.204Z,0.00
2018-09-13T03:13:26.028Z,0.00
2018-09-13T03:14:26.019Z,0.00
2018-09-13T03:15:26.006Z,0.00
2018-09-13T03:16:25.992Z,0.00
2018-09-13T03:17:26.036Z,0.00
2018-09-13T03:18:25.974Z,0.00
2018-09-13T03:19:25.965Z,0.00
2018-09-13T03:20:25.956Z,0.00
2018-09-13T03:21:25.940Z,0.00
2018-09-13T03:22:25.931Z,0.00
2018-09-13T03:23:26.080Z,0.00
2018-09-13T03:24:25.909Z,0.00
2018-09-13T03:25:25.902Z,0.00
2018-09-13T03:26:25.886Z,0.00
2018-09-13T03:27:25.876Z,0.00
2018-09-13T03:28:25.915Z,0.00
2018-09-13T03:29:25.853Z,0.00
2018-09-13T03:30:25.843Z,0.00
2018-09-13T03:31:25.838Z,0.00
2018-09-13T03:32:25.820Z,0.00
2018-09-13T03:33:26.053Z,0.00
2018-09-13T03:34:25.800Z,0.00
2018-09-13T03:35:25.788Z,0.00
2018-09-13T03:36:25.776Z,0.00
2018-09-13T03:37:25.772Z,0.00
2018-09-13T03:38:25.883Z,0.00
2018-09-13T03:39:25.748Z,0.00
2018-09-13T03:40:25.734Z,0.00
2018-09-13T03:41:25.724Z,0.00
2018-09-13T03:42:25.715Z,0.00
2018-09-13T03:43:26.021Z,0.00
2018-09-13T03:44:25.691Z,0.00
2018-09-13T03:45:25.682Z,0.00
2018-09-13T03:46:25.671Z,0.00
2018-09-13T03:47:25.661Z,0.00
2018-09-13T03:48:25.857Z,0.00
2018-09-13T03:49:25.644Z,0.00
2018-09-13T03:50:25.627Z,0.00
2018-09-13T03:51:25.617Z,0.00
2018-09-13T03:52:25.606Z,0.00
2018-09-13T03:53:25.682Z,0.00
2018-09-13T03:54:25.584Z,0.00
2018-09-13T03:55:25.573Z,0.00
2018-09-13T03:56:25.565Z,0.00
2018-09-13T03:57:25.553Z,0.00
2018-09-13T03:58:26.745Z,0.00
2018-09-13T03:59:25.530Z,0.00
2018-09-13T04:00:25.521Z,0.00
2018-09-13T04:01:25.509Z,0.00
2018-09-13T04:02:25.516Z,0.00
2018-09-13T04:03:25.695Z,0.00
2018-09-13T04:04:25.476Z,0.00
2018-09-13T04:05:25.469Z,0.00
2018-09-13T04:06:25.458Z,0.00
2018-09-13T04:07:25.446Z,0.00
2018-09-13T04:08:25.495Z,0.00
2018-09-13T04:09:25.476Z,0.00
2018-09-13T04:10:25.410Z,0.00
2018-09-13T04:11:25.412Z,0.00
2018-09-13T04:12:25.388Z,0.00
2018-09-13T04:13:25.621Z,0.00
2018-09-13T04:14:25.368Z,0.00
2018-09-13T04:15:25.356Z,0.00
2018-09-13T04:16:25.346Z,0.00
2018-09-13T04:17:25.336Z,0.00
2018-09-13T04:18:25.455Z,0.00
2018-09-13T04:19:25.320Z,0.00
2018-09-13T04:20:25.305Z,0.00
2018-09-13T04:21:25.291Z,4.00
2018-09-13T04:22:25.285Z,4.00
2018-09-13T04:23:25.592Z,4.00
2018-09-13T04:24:25.263Z,4.00
2018-09-13T04:25:25.251Z,4.00
2018-09-13T04:26:25.250Z,8.00
2018-09-13T04:27:25.227Z,8.00
2018-09-13T04:28:25.431Z,8.00
2018-09-13T04:29:25.208Z,8.00
2018-09-13T04:30:25.201Z,12.00
2018-09-13T04:31:25.186Z,12.00
2018-09-13T04:32:25.173Z,12.00
2018-09-13T04:33:25.268Z,20.00
2018-09-13T04:34:25.155Z,20.00
2018-09-13T04:35:25.682Z,24.00
2018-09-13T04:36:25.137Z,28.00
2018-09-13T04:37:25.127Z,32.00
2018-09-13T04:38:25.392Z,40.00
2018-09-13T04:39:25.097Z,48.00
2018-09-13T04:40:25.089Z,56.00
2018-09-13T04:41:25.078Z,64.00
2018-09-13T04:42:25.070Z,72.00
2018-09-13T04:43:25.222Z,84.00
2018-09-13T04:44:25.048Z,96.00
2018-09-13T04:45:25.035Z,108.00
2018-09-13T04:46:25.026Z,120.00
2018-09-13T04:47:25.013Z,140.00
2018-09-13T04:48:25.006Z,152.00
2018-09-13T04:49:25.269Z,168.00
2018-09-13T04:50:24.982Z,180.00
2018-09-13T04:51:24.970Z,200.00
2018-09-13T04:52:24.959Z,216.00
2018-09-13T04:53:24.949Z,236.00
2018-09-13T04:54:25.095Z,256.00
2018-09-13T04:55:24.926Z,276.00
2018-09-13T04:56:24.916Z,304.00
2018-09-13T04:57:24.907Z,332.00
2018-09-13T04:58:24.895Z,356.00
2018-09-13T04:59:25.235Z,384.00
2018-09-13T05:00:24.885Z,404.00
2018-09-13T05:01:24.862Z,436.00
2018-09-13T05:02:24.850Z,472.00
2018-09-13T05:03:24.840Z,520.00
2018-09-13T05:04:25.066Z,580.00
2018-09-13T05:05:24.821Z,656.00
2018-09-13T05:06:24.813Z,728.00
2018-09-13T05:07:24.796Z,780.00
2018-09-13T05:08:24.789Z,804.00
2018-09-13T05:09:24.900Z,828.00
2018-09-13T05:10:24.766Z,892.00
2018-09-13T05:11:24.757Z,980.00
2018-09-13T05:12:24.743Z,1032.00
2018-09-13T05:13:24.731Z,1072.00
2018-09-13T05:14:25.049Z,1104.00
2018-09-13T05:15:24.711Z,1144.00
2018-09-13T05:16:24.706Z,1176.00
2018-09-13T05:17:24.694Z,1200.00
2018-09-13T05:18:24.685Z,1240.00
2018-09-13T05:19:24.867Z,1276.00
2018-09-13T05:20:24.656Z,1320.00
2018-09-13T05:21:24.645Z,1368.00
2018-09-13T05:22:24.635Z,1416.00
2018-09-13T05:23:24.627Z,1476.00
2018-09-13T05:24:24.770Z,1540.00
2018-09-13T05:25:24.603Z,1592.00
2018-09-13T05:26:24.591Z,1640.00
2018-09-13T05:27:24.582Z,1684.00
2018-09-13T05:28:24.572Z,1720.00
2018-09-13T05:29:24.841Z,1752.00
2018-09-13T05:30:24.549Z,1792.00
2018-09-13T05:31:24.541Z,1828.00
2018-09-13T05:32:24.528Z,1856.00
2018-09-13T05:33:24.517Z,1884.00
2018-09-13T05:34:24.667Z,1916.00
2018-09-13T05:35:24.496Z,1940.00
2018-09-13T05:36:24.484Z,1968.00
2018-09-13T05:37:24.475Z,1996.00
2018-09-13T05:38:24.463Z,2028.00
2018-09-13T05:39:24.505Z,2048.00
2018-09-13T05:40:24.443Z,2080.00
2018-09-13T05:41:24.443Z,2112.00
2018-09-13T05:42:24.420Z,2148.00
2018-09-13T05:43:24.411Z,2192.00
2018-09-13T05:44:24.656Z,2240.00
2018-09-13T05:45:24.388Z,2280.00
2018-09-13T05:46:24.379Z,2312.00
2018-09-13T05:47:24.371Z,2396.00
2018-09-13T05:48:24.356Z,2428.00
2018-09-13T05:49:24.467Z,2500.00
2018-09-13T05:50:24.335Z,2540.00
2018-09-13T05:51:24.322Z,2592.00
2018-09-13T05:52:24.312Z,2620.00
2018-09-13T05:53:24.356Z,2684.00
2018-09-13T05:54:24.605Z,2732.00
2018-09-13T05:55:24.281Z,2760.00
2018-09-13T05:56:24.268Z,2796.00
2018-09-13T05:57:24.257Z,2816.00
2018-09-13T05:58:24.248Z,2844.00
2018-09-13T05:59:24.439Z,2864.00
2018-09-13T06:00:24.228Z,2888.00
2018-09-13T06:01:24.278Z,2904.00
2018-09-13T06:02:24.204Z,2916.00
2018-09-13T06:03:24.195Z,2936.00
2018-09-13T06:04:24.268Z,2960.00
2018-09-13T06:05:24.177Z,2972.00
2018-09-13T06:06:24.161Z,2972.00
2018-09-13T06:07:24.171Z,2960.00
2018-09-13T06:08:24.141Z,2968.00
2018-09-13T06:09:24.414Z,2968.00
2018-09-13T06:10:24.120Z,2936.00
2018-09-13T06:11:24.114Z,2892.00
2018-09-13T06:12:24.102Z,2876.00
2018-09-13T06:13:24.092Z,2884.00
2018-09-13T06:14:24.242Z,2904.00
2018-09-13T06:15:24.066Z,2916.00
2018-09-13T06:16:24.057Z,2900.00
2018-09-13T06:17:24.044Z,2900.00
2018-09-13T06:18:24.033Z,2896.00
2018-09-13T06:19:24.069Z,2924.00
2018-09-13T06:20:24.011Z,2948.00
2018-09-13T06:21:24.008Z,2956.00
2018-09-13T06:22:23.993Z,2932.00
2018-09-13T06:23:23.978Z,2924.00
2018-09-13T06:24:24.211Z,2984.00
2018-09-13T06:25:23.960Z,3036.00
2018-09-13T06:26:23.945Z,3100.00
2018-09-13T06:27:23.941Z,3184.00
2018-09-13T06:28:23.927Z,3280.00
2018-09-13T06:29:24.062Z,3416.00
2018-09-13T06:30:23.920Z,3556.00
2018-09-13T06:31:23.892Z,3652.00
2018-09-13T06:32:23.881Z,3820.00
2018-09-13T06:33:23.870Z,3892.00
2018-09-13T06:34:24.178Z,3948.00
2018-09-13T06:35:24.120Z,3956.00
2018-09-13T06:36:23.845Z,4016.00
2018-09-13T06:37:23.827Z,4076.00
2018-09-13T06:38:23.826Z,4104.00
2018-09-13T06:39:24.010Z,4136.00
2018-09-13T06:40:23.801Z,4028.00
2018-09-13T06:41:23.788Z,4204.00
2018-09-13T06:42:23.821Z,4512.00
2018-09-13T06:43:23.765Z,4836.00
2018-09-13T06:44:23.840Z,5180.00
2018-09-13T06:45:23.779Z,5564.00
2018-09-13T06:46:23.737Z,5756.00
2018-09-13T06:47:23.724Z,5888.00
2018-09-13T06:48:23.723Z,5928.00
2018-09-13T06:49:23.986Z,5924.00
2018-09-13T06:50:23.690Z,5808.00
2018-09-13T06:51:23.680Z,5568.00
2018-09-13T06:52:23.669Z,5396.00
2018-09-13T06:53:23.666Z,5196.00
2018-09-13T06:54:23.810Z,5008.00
2018-09-13T06:55:23.635Z,4888.00
2018-09-13T06:56:23.624Z,4768.00
2018-09-13T06:57:23.614Z,4732.00
2018-09-13T06:58:23.605Z,4728.00
2018-09-13T06:59:23.641Z,4692.00
2018-09-13T07:00:23.588Z,4576.00
2018-09-13T07:01:23.570Z,4420.00
2018-09-13T07:02:23.616Z,4320.00
2018-09-13T07:03:23.548Z,4400.00
2018-09-13T07:04:23.778Z,4124.00
2018-09-13T07:05:23.526Z,4004.00
2018-09-13T07:06:23.517Z,3872.00
2018-09-13T07:07:23.506Z,3816.00
2018-09-13T07:08:23.495Z,3832.00
2018-09-13T07:09:23.614Z,3808.00
2018-09-13T07:10:23.483Z,3696.00
2018-09-13T07:11:23.465Z,3460.00
2018-09-13T07:12:23.451Z,3224.00
2018-09-13T07:13:23.444Z,2976.00
2018-09-13T07:14:23.751Z,2688.00
2018-09-13T07:15:23.422Z,2440.00
2018-09-13T07:16:23.427Z,2252.00
2018-09-13T07:17:23.408Z,2088.00
2018-09-13T07:18:23.429Z,1964.00
2018-09-13T07:19:23.580Z,1852.00
2018-09-13T07:20:23.367Z,1716.00
2018-09-13T07:21:23.360Z,1588.00
2018-09-13T07:22:23.345Z,1452.00
2018-09-13T07:23:23.333Z,1332.00
2018-09-13T07:24:23.410Z,1252.00
2018-09-13T07:25:23.312Z,1204.00
2018-09-13T07:26:23.302Z,1180.00
2018-09-13T07:27:23.294Z,1164.00
2018-09-13T07:28:23.280Z,1164.00
2018-09-13T07:29:23.551Z,1172.00
2018-09-13T07:30:23.260Z,1188.00
2018-09-13T07:31:23.245Z,1220.00
2018-09-13T07:32:23.239Z,1224.00
2018-09-13T07:33:23.227Z,1212.00
2018-09-13T07:34:23.379Z,1196.00
2018-09-13T07:35:23.202Z,1180.00
2018-09-13T07:36:23.196Z,1176.00
2018-09-13T07:37:23.183Z,1188.00
2018-09-13T07:38:23.169Z,1200.00
2018-09-13T07:39:23.519Z,1228.00
2018-09-13T07:40:23.147Z,1272.00
2018-09-13T07:41:23.136Z,1324.00
2018-09-13T07:42:23.208Z,1376.00
2018-09-13T07:43:23.115Z,1416.00
2018-09-13T07:44:23.349Z,1472.00
2018-09-13T07:45:23.097Z,1532.00
2018-09-13T07:46:23.081Z,1624.00
2018-09-13T07:47:23.070Z,1752.00
2018-09-13T07:48:23.060Z,1888.00
2018-09-13T07:49:23.264Z,1992.00
2018-09-13T07:50:23.042Z,2064.00
2018-09-13T07:51:23.032Z,2088.00
2018-09-13T07:52:23.017Z,2128.00
2018-09-13T07:53:23.006Z,2124.00
2018-09-13T07:54:23.328Z,2168.00
2018-09-13T07:55:22.995Z,2204.00
2018-09-13T07:56:22.978Z,2244.00
2018-09-13T07:57:22.967Z,2328.00
2018-09-13T07:58:22.954Z,2452.00
2018-09-13T07:59:22.945Z,2548.00
2018-09-13T08:00:23.055Z,2640.00
2018-09-13T08:01:22.919Z,2696.00
2018-09-13T08:02:22.910Z,2732.00
2018-09-13T08:03:22.896Z,2768.00
2018-09-13T08:04:22.885Z,2816.00
2018-09-13T08:05:23.193Z,2864.00
2018-09-13T08:06:22.908Z,2892.00
2018-09-13T08:07:22.858Z,2912.00
2018-09-13T08:08:22.845Z,2896.00
2018-09-13T08:09:22.829Z,2852.00
2018-09-13T08:10:23.023Z,2796.00
2018-09-13T08:11:22.809Z,2756.00
2018-09-13T08:12:22.797Z,2760.00
2018-09-13T08:13:22.791Z,2788.00
2018-09-13T08:14:22.782Z,2836.00
2018-09-13T08:15:22.898Z,2916.00
2018-09-13T08:16:22.753Z,3044.00
2018-09-13T08:17:22.759Z,3204.00
2018-09-13T08:18:22.734Z,3384.00
2018-09-13T08:19:22.722Z,3572.00
2018-09-13T08:20:23.187Z,3740.00
2018-09-13T08:21:22.702Z,3872.00
2018-09-13T08:22:22.689Z,3932.00
2018-09-13T08:23:22.680Z,3896.00
2018-09-13T08:24:22.670Z,3812.00
2018-09-13T08:25:22.826Z,3720.00
2018-09-13T08:26:22.647Z,3652.00
2018-09-13T08:27:22.668Z,3608.00
2018-09-13T08:28:22.622Z,3568.00
2018-09-13T08:29:22.613Z,3528.00
2018-09-13T08:30:22.654Z,3480.00
2018-09-13T08:31:22.589Z,3428.00
2018-09-13T08:32:22.583Z,3380.00
2018-09-13T08:33:22.600Z,3340.00
2018-09-13T08:34:22.556Z,3332.00
2018-09-13T08:35:22.795Z,3328.00
2018-09-13T08:36:22.534Z,3308.00
2018-09-13T08:37:22.523Z,3284.00
2018-09-13T08:38:22.511Z,3272.00
2018-09-13T08:39:22.503Z,3288.00
2018-09-13T08:40:22.702Z,3352.00
2018-09-13T08:41:22.480Z,3436.00
2018-09-13T08:42:22.470Z,3544.00
2018-09-13T08:43:22.460Z,3664.00
2018-09-13T08:44:22.447Z,3776.00
2018-09-13T08:45:22.768Z,3884.00
2018-09-13T08:46:22.425Z,3952.00
2018-09-13T08:47:22.414Z,3968.00
2018-09-13T08:48:22.409Z,3972.00
2018-09-13T08:49:22.399Z,4000.00
2018-09-13T08:50:22.597Z,4068.00
2018-09-13T08:51:22.573Z,4160.00
2018-09-13T08:52:22.363Z,4284.00
2018-09-13T08:53:22.352Z,4424.00
2018-09-13T08:54:22.345Z,4568.00
2018-09-13T08:55:22.429Z,4712.00
2018-09-13T08:56:22.319Z,4832.00
2018-09-13T08:57:22.306Z,4912.00
2018-09-13T08:58:22.295Z,4932.00
2018-09-13T08:59:22.287Z,4864.00
2018-09-13T09:00:22.565Z,4712.00
2018-09-13T09:01:22.265Z,4524.00
2018-09-13T09:02:22.253Z,4324.00
2018-09-13T09:03:22.241Z,4144.00
2018-09-13T09:04:22.232Z,4036.00
2018-09-13T09:05:22.448Z,4040.00
2018-09-13T09:06:22.231Z,4140.00
2018-09-13T09:07:22.199Z,4280.00
2018-09-13T09:08:22.189Z,4412.00
2018-09-13T09:09:22.178Z,4524.00
2018-09-13T09:10:22.227Z,4632.00
2018-09-13T09:11:22.155Z,4780.00
2018-09-13T09:12:22.144Z,4956.00
2018-09-13T09:13:22.138Z,5132.00
2018-09-13T09:14:22.124Z,5280.00
2018-09-13T09:15:22.364Z,5380.00
2018-09-13T09:16:22.103Z,5444.00
2018-09-13T09:17:22.091Z,5492.00
2018-09-13T09:18:22.082Z,5528.00
2018-09-13T09:19:22.082Z,5584.00
2018-09-13T09:20:22.195Z,5636.00
2018-09-13T09:21:22.049Z,5676.00
2018-09-13T09:22:22.039Z,5700.00
2018-09-13T09:23:22.029Z,5720.00
2018-09-13T09:24:22.017Z,5716.00
2018-09-13T09:25:23.257Z,5688.00
2018-09-13T09:26:21.995Z,5652.00
2018-09-13T09:27:21.983Z,5628.00
2018-09-13T09:28:21.973Z,5588.00
2018-09-13T09:29:22.050Z,5564.00
2018-09-13T09:30:22.170Z,5572.00
2018-09-13T09:31:21.945Z,5620.00
2018-09-13T09:32:21.935Z,5704.00
2018-09-13T09:33:21.921Z,5744.00
2018-09-13T09:34:21.910Z,5720.00
2018-09-13T09:35:21.996Z,5656.00
2018-09-13T09:36:21.890Z,5612.00
2018-09-13T09:37:21.923Z,5576.00
2018-09-13T09:38:21.875Z,5592.00
2018-09-13T09:39:21.857Z,5652.00
2018-09-13T09:40:22.151Z,5680.00
2018-09-13T09:41:21.835Z,5660.00
2018-09-13T09:42:21.827Z,5592.00
2018-09-13T09:43:21.818Z,5552.00
2018-09-13T09:44:21.895Z,5572.00
2018-09-13T09:45:21.967Z,5724.00
2018-09-13T09:46:21.784Z,6016.00
2018-09-13T09:47:21.771Z,6388.00
2018-09-13T09:48:21.760Z,6844.00
2018-09-13T09:49:21.755Z,7388.00
2018-09-13T09:50:21.936Z,7940.00
2018-09-13T09:51:21.728Z,8440.00
2018-09-13T09:52:21.780Z,8796.00
2018-09-13T09:53:21.707Z,8912.00
2018-09-13T09:54:21.698Z,8744.00
2018-09-13T09:55:22.246Z,8352.00
2018-09-13T09:56:21.674Z,7944.00
2018-09-13T09:57:21.666Z,7628.00
2018-09-13T09:58:21.654Z,7412.00
2018-09-13T09:59:21.643Z,7352.00
2018-09-13T10:00:21.768Z,7524.00
2018-09-13T10:01:21.621Z,7892.00
2018-09-13T10:02:21.610Z,8372.00
2018-09-13T10:03:21.599Z,8796.00
2018-09-13T10:04:21.644Z,9212.00
2018-09-13T10:05:21.912Z,9700.00
2018-09-13T10:06:21.570Z,10276.00
2018-09-13T10:07:21.556Z,10724.00
2018-09-13T10:08:21.545Z,10932.00
2018-09-13T10:09:21.536Z,10916.00
2018-09-13T10:10:21.740Z,10812.00
2018-09-13T10:11:21.517Z,10752.00
2018-09-13T10:12:21.505Z,10576.00
2018-09-13T10:13:21.491Z,10272.00
2018-09-13T10:14:21.482Z,9824.00
2018-09-13T10:15:21.566Z,9364.00
2018-09-13T10:16:21.502Z,8868.00
2018-09-13T10:17:21.452Z,8424.00
2018-09-13T10:18:21.438Z,8000.00
2018-09-13T10:19:21.428Z,7592.00
2018-09-13T10:20:21.706Z,7268.00
2018-09-13T10:21:21.408Z,7000.00
2018-09-13T10:22:21.398Z,6732.00
2018-09-13T10:23:21.398Z,6432.00
2018-09-13T10:24:21.375Z,6236.00
2018-09-13T10:25:21.538Z,6208.00
2018-09-13T10:26:21.353Z,6372.00
2018-09-13T10:27:21.642Z,6656.00
2018-09-13T10:28:21.332Z,7096.00
2018-09-13T10:29:21.445Z,7676.00
2018-09-13T10:30:21.310Z,8468.00
2018-09-13T10:31:21.581Z,9352.00
2018-09-13T10:32:21.290Z,10236.00
2018-09-13T10:33:21.279Z,11072.00
2018-09-13T10:34:21.268Z,11584.00
2018-09-13T10:35:21.267Z,12000.00
2018-09-13T10:36:21.410Z,12468.00
2018-09-13T10:37:21.238Z,12832.00
2018-09-13T10:38:21.226Z,13104.00
2018-09-13T10:39:21.216Z,13216.00
2018-09-13T10:40:21.207Z,13036.00
2018-09-13T10:41:21.574Z,12788.00
2018-09-13T10:42:21.184Z,12728.00
2018-09-13T10:43:21.173Z,12664.00
2018-09-13T10:44:21.163Z,12440.00
2018-09-13T10:45:21.152Z,12112.00
2018-09-13T10:46:21.386Z,11444.00
2018-09-13T10:47:21.182Z,10648.00
2018-09-13T10:48:21.120Z,9908.00
2018-09-13T10:49:21.110Z,9248.00
2018-09-13T10:50:21.147Z,8684.00
2018-09-13T10:51:21.212Z,8164.00
2018-09-13T10:52:21.195Z,7720.00
2018-09-13T10:53:21.066Z,7336.00
2018-09-13T10:54:21.104Z,7008.00
2018-09-13T10:55:21.182Z,6696.00
2018-09-13T10:56:21.350Z,6540.00
2018-09-13T10:57:21.026Z,6528.00
2018-09-13T10:58:21.013Z,6572.00
2018-09-13T10:59:21.006Z,6728.00
2018-09-13T11:00:20.995Z,6980.00
2018-09-13T11:01:21.181Z,7268.00
2018-09-13T11:02:20.971Z,7568.00
2018-09-13T11:03:20.964Z,7784.00
2018-09-13T11:04:20.965Z,7964.00
2018-09-13T11:05:20.944Z,8104.00
2018-09-13T11:06:21.320Z,8232.00
2018-09-13T11:07:20.918Z,8396.00
2018-09-13T11:08:20.909Z,8532.00
2018-09-13T11:09:20.896Z,8648.00
2018-09-13T11:10:20.934Z,8704.00
2018-09-13T11:11:20.947Z,8676.00
2018-09-13T11:12:21.058Z,8636.00
2018-09-13T11:13:20.855Z,8688.00
2018-09-13T11:14:20.845Z,8956.00
2018-09-13T11:15:20.840Z,9468.00
2018-09-13T11:16:20.822Z,10124.00
2018-09-13T11:17:20.887Z,10752.00
2018-09-13T11:18:20.822Z,11288.00
2018-09-13T11:19:20.791Z,11736.00
2018-09-13T11:20:20.783Z,12088.00
2018-09-13T11:21:20.774Z,12368.00
2018-09-13T11:22:21.024Z,12544.00
2018-09-13T11:23:20.750Z,12600.00
2018-09-13T11:24:20.742Z,12496.00
2018-09-13T11:25:20.731Z,12392.00
2018-09-13T11:26:20.718Z,12316.00
2018-09-13T11:27:20.863Z,12156.00
2018-09-13T11:28:20.700Z,11956.00
2018-09-13T11:29:20.686Z,11784.00
2018-09-13T11:30:20.690Z,11620.00
2018-09-13T11:31:20.666Z,11468.00
2018-09-13T11:32:20.996Z,11348.00
2018-09-13T11:33:20.646Z,11300.00
2018-09-13T11:34:20.634Z,11336.00
2018-09-13T11:35:20.623Z,11096.00
2018-09-13T11:36:20.614Z,11052.00
2018-09-13T11:37:20.604Z,11312.00
2018-09-13T11:38:21.654Z,11684.00
2018-09-13T11:39:20.588Z,11816.00
2018-09-13T11:40:20.725Z,11836.00
2018-09-13T11:41:20.562Z,11864.00
2018-09-13T11:42:20.554Z,11936.00
2018-09-13T11:43:20.869Z,12060.00
2018-09-13T11:44:20.531Z,12152.00
2018-09-13T11:45:20.521Z,12268.00
2018-09-13T11:46:20.810Z,11912.00
2018-09-13T11:47:20.499Z,11544.00
2018-09-13T11:48:20.701Z,11224.00
2018-09-13T11:49:20.479Z,10996.00
2018-09-13T11:50:20.467Z,10916.00
2018-09-13T11:51:20.456Z,10524.00
2018-09-13T11:52:20.445Z,9860.00
2018-09-13T11:53:20.837Z,9344.00
2018-09-13T11:54:20.427Z,8936.00
2018-09-13T11:55:20.413Z,8832.00
2018-09-13T11:56:20.401Z,8968.00
2018-09-13T11:57:20.392Z,9136.00
2018-09-13T11:58:20.667Z,9340.00
2018-09-13T11:59:20.368Z,9616.00
2018-09-13T12:00:20.386Z,9820.00
2018-09-13T12:01:20.378Z,9904.00
2018-09-13T12:02:20.337Z,9780.00
2018-09-13T12:03:20.500Z,9552.00
2018-09-13T12:04:20.315Z,9296.00
2018-09-13T12:05:20.305Z,9164.00
2018-09-13T12:06:20.298Z,9276.00
2018-09-13T12:07:20.283Z,9652.00
2018-09-13T12:08:20.334Z,10160.00
2018-09-13T12:09:20.304Z,10580.00
2018-09-13T12:10:20.253Z,10992.00
2018-09-13T12:11:20.242Z,11376.00
2018-09-13T12:12:20.256Z,11780.00
2018-09-13T12:13:20.475Z,12084.00
2018-09-13T12:14:20.208Z,12208.00
2018-09-13T12:15:20.198Z,12380.00
2018-09-13T12:16:20.187Z,12532.00
2018-09-13T12:17:20.176Z,12640.00
2018-09-13T12:18:21.462Z,12844.00
2018-09-13T12:19:20.220Z,13208.00
2018-09-13T12:20:21.029Z,13528.00
2018-09-13T12:21:20.135Z,13836.00
2018-09-13T12:22:20.135Z,13756.00
2018-09-13T12:23:20.439Z,13360.00
2018-09-13T12:24:20.102Z,13368.00
2018-09-13T12:25:20.092Z,13020.00
2018-09-13T12:26:20.083Z,12692.00
2018-09-13T12:27:20.130Z,12844.00
2018-09-13T12:28:20.059Z,13688.00
2018-09-13T12:29:20.184Z,14436.00